Time;durP1;ratioP1;P1;durP2;ratioP2;P2;SDS_P1;SDS_P2;PMS_P1;PMS_P2;Temp;Humidity;BMP_temperature;BMP_pressure;BME280_temperature;BME280_humidity;BME280_pressure;Samples;Min_cycle;Max_cycle;Signal;HPM_P1;HPM_P2
2023/08/08 00:02:06;;;;;;;4.03;1.65;;;15.20;99.90;;;;;;5033569;28;20040;-50
2023/08/08 00:04:32;;;;;;;4.68;1.45;;;15.20;99.90;;;;;;5032640;28;20120;-51
2023/08/08 00:06:57;;;;;;;2.08;1.40;;;15.20;99.90;;;;;;5015657;28;20108;-53
2023/08/08 00:09:23;;;;;;;3.15;1.33;;;15.20;99.90;;;;;;5033566;28;20079;-52
2023/08/08 00:11:49;;;;;;;4.00;1.52;;;15.20;99.90;;;;;;5033174;28;20033;-54
2023/08/08 00:14:14;;;;;;;2.97;1.95;;;15.20;99.90;;;;;;5033162;28;20029;-54
2023/08/08 00:16:40;;;;;;;3.08;1.70;;;15.20;99.90;;;;;;5033136;28;20029;-50
2023/08/08 00:19:06;;;;;;;3.85;2.08;;;15.10;99.90;;;;;;5033396;28;20025;-48
2023/08/08 00:21:31;;;;;;;6.57;2.38;;;15.00;99.90;;;;;;5033608;28;20032;-53
2023/08/08 00:23:57;;;;;;;5.30;2.08;;;15.00;99.90;;;;;;5033339;28;20385;-53
2023/08/08 00:26:22;;;;;;;4.57;2.35;;;14.90;99.90;;;;;;5033163;28;20482;-52
2023/08/08 00:28:48;;;;;;;5.55;2.10;;;15.00;99.90;;;;;;5033270;28;20057;-54
2023/08/08 00:31:16;;;;;;;4.93;1.98;;;15.10;99.90;;;;;;5015430;28;20116;-53
2023/08/08 00:33:42;;;;;;;4.47;1.60;;;15.10;99.90;;;;;;5032977;28;20034;-53
2023/08/08 00:36:08;;;;;;;3.17;1.75;;;15.10;99.90;;;;;;5015072;28;20143;-50
2023/08/08 00:38:34;;;;;;;3.08;1.58;;;15.20;99.90;;;;;;5033085;28;20033;-52
2023/08/08 00:40:59;;;;;;;5.15;1.48;;;15.20;99.90;;;;;;5014971;28;20120;-53
2023/08/08 00:43:25;;;;;;;5.68;1.83;;;15.20;99.90;;;;;;4998476;28;20025;-51
2023/08/08 00:45:51;;;;;;;3.75;1.35;;;15.20;99.90;;;;;;5032656;28;20259;-51
2023/08/08 00:48:17;;;;;;;3.58;1.52;;;15.10;99.90;;;;;;5032741;28;20063;-52
2023/08/08 00:50:46;;;;;;;4.57;1.80;;;15.00;99.90;;;;;;5032751;28;20033;-50
2023/08/08 00:53:12;;;;;;;4.93;1.52;;;15.00;99.90;;;;;;5014604;28;20084;-50
2023/08/08 00:55:38;;;;;;;3.85;1.77;;;15.00;99.90;;;;;;5014622;28;20421;-48
2023/08/08 00:58:04;;;;;;;3.25;1.27;;;14.90;99.90;;;;;;5032583;28;20408;-50
2023/08/08 01:00:30;;;;;;;2.80;1.38;;;14.90;99.90;;;;;;5014700;28;20116;-52
2023/08/08 01:02:55;;;;;;;2.20;1.10;;;14.90;99.90;;;;;;5032050;28;20497;-53
2023/08/08 01:05:21;;;;;;;3.35;1.23;;;14.90;99.90;;;;;;5032665;28;20022;-53
2023/08/08 01:08:05;;;;;;;2.28;1.38;;;14.90;99.90;;;;;;5014379;28;20040;-52
2023/08/08 01:10:38;;;;;;;3.92;1.40;;;14.80;99.90;;;;;;5014513;28;20180;-51
2023/08/08 01:13:08;;;;;;;2.50;1.40;;;14.70;99.90;;;;;;5031873;28;20091;-51
2023/08/08 01:15:36;;;;;;;3.50;1.50;;;14.70;99.90;;;;;;5031818;28;20029;-49
2023/08/08 01:18:07;;;;;;;3.67;1.52;;;14.80;99.90;;;;;;5014389;28;20171;-53
2023/08/08 01:20:34;;;;;;;2.97;1.35;;;14.80;99.90;;;;;;5031964;28;20078;-53
2023/08/08 01:23:18;;;;;;;3.42;1.50;;;14.70;99.90;;;;;;5031574;28;20036;-52
2023/08/08 01:25:45;;;;;;;3.55;1.58;;;14.70;99.90;;;;;;5013986;28;20076;-52
2023/08/08 01:28:11;;;;;;;2.75;1.45;;;14.60;99.90;;;;;;5014076;28;20030;-53
2023/08/08 01:30:37;;;;;;;3.03;1.20;;;14.60;99.90;;;;;;5031787;28;20036;-52
2023/08/08 01:33:04;;;;;;;3.50;1.50;;;14.50;99.90;;;;;;5013631;28;20486;-48
2023/08/08 01:35:32;;;;;;;4.97;2.17;;;14.50;99.90;;;;;;5013659;28;20036;-52
2023/08/08 01:38:19;;;;;;;4.97;1.58;;;14.50;99.90;;;;;;5013906;28;20025;-54
2023/08/08 01:40:45;;;;;;;3.80;1.90;;;14.50;99.90;;;;;;5031843;28;20041;-54
2023/08/08 01:43:13;;;;;;;3.92;1.67;;;14.50;99.90;;;;;;5013482;28;20124;-53
2023/08/08 01:45:39;;;;;;;3.08;1.52;;;14.50;99.90;;;;;;5013765;28;20397;-53
2023/08/08 01:48:09;;;;;;;4.60;1.50;;;14.50;99.90;;;;;;5013880;28;20410;-53
2023/08/08 01:50:35;;;;;;;4.53;1.58;;;14.50;99.90;;;;;;5031524;28;20064;-53
2023/08/08 01:53:01;;;;;;;3.00;1.60;;;14.50;99.90;;;;;;5013358;28;20037;-53
2023/08/08 01:55:27;;;;;;;3.10;1.70;;;14.50;99.90;;;;;;5013396;28;20033;-55
2023/08/08 01:57:52;;;;;;;4.47;1.90;;;14.50;99.90;;;;;;5013498;28;20033;-52
2023/08/08 02:00:18;;;;;;;3.13;1.67;;;14.50;99.90;;;;;;5013606;28;20394;-53
2023/08/08 02:02:44;;;;;;;4.70;1.67;;;14.50;99.90;;;;;;5031109;28;20478;-54
2023/08/08 02:05:10;;;;;;;3.78;1.75;;;14.50;99.90;;;;;;5031038;28;20033;-53
2023/08/08 02:07:36;;;;;;;3.03;1.70;;;14.50;99.90;;;;;;5013207;28;20041;-53
2023/08/08 02:10:02;;;;;;;2.95;1.55;;;14.50;99.90;;;;;;5031134;28;20033;-52
2023/08/08 02:12:30;;;;;;;5.38;1.55;;;14.50;99.90;;;;;;5013225;28;20490;-50
2023/08/08 02:14:57;;;;;;;2.75;1.30;;;14.50;99.90;;;;;;4996964;28;20112;-49
2023/08/08 02:17:22;;;;;;;3.70;1.73;;;14.50;99.90;;;;;;5013292;28;20091;-50
2023/08/08 02:19:48;;;;;;;3.75;1.38;;;14.50;99.90;;;;;;5013279;28;20026;-51
2023/08/08 02:22:14;;;;;;;2.88;1.52;;;14.50;99.90;;;;;;5030595;28;20379;-49
2023/08/08 02:24:39;;;;;;;3.70;1.83;;;14.50;99.90;;;;;;5013171;28;20102;-50
2023/08/08 02:27:05;;;;;;;4.47;2.33;;;14.50;99.90;;;;;;5030201;28;20059;-51
2023/08/08 02:29:31;;;;;;;6.35;1.55;;;14.50;99.90;;;;;;5030733;28;20030;-52
2023/08/08 02:31:59;;;;;;;3.75;1.55;;;14.50;99.90;;;;;;5030868;28;20109;-50
2023/08/08 02:34:25;;;;;;;3.10;1.33;;;14.50;99.90;;;;;;5030766;28;20025;-51
2023/08/08 02:36:51;;;;;;;4.43;1.73;;;14.60;99.90;;;;;;5030902;28;20048;-52
2023/08/08 02:39:16;;;;;;;4.15;1.65;;;14.50;99.90;;;;;;5013129;28;20033;-53
2023/08/08 02:41:42;;;;;;;3.33;1.70;;;14.50;99.90;;;;;;5012701;28;20037;-50
2023/08/08 02:44:09;;;;;;;3.22;1.50;;;14.50;99.90;;;;;;5012805;28;20040;-51
2023/08/08 02:46:34;;;;;;;3.97;1.45;;;14.40;99.90;;;;;;5012656;28;20022;-51
2023/08/08 02:49:00;;;;;;;2.95;1.80;;;14.50;99.90;;;;;;5012942;28;20028;-52
2023/08/08 02:51:26;;;;;;;4.10;1.67;;;14.50;99.90;;;;;;5012805;28;20105;-53
2023/08/08 02:53:52;;;;;;;5.85;1.83;;;14.50;99.90;;;;;;5030568;28;20521;-53
2023/08/08 02:56:18;;;;;;;4.32;1.80;;;14.50;99.90;;;;;;5012580;28;20112;-52
2023/08/08 02:58:43;;;;;;;5.63;1.90;;;14.50;99.90;;;;;;5012891;28;20112;-49
2023/08/08 03:01:09;;;;;;;3.38;1.63;;;14.50;99.90;;;;;;5012970;28;20021;-53
2023/08/08 03:03:36;;;;;;;4.68;1.83;;;14.50;99.90;;;;;;5012446;28;20030;-48
2023/08/08 03:06:03;;;;;;;4.75;1.80;;;14.50;99.90;;;;;;5012498;28;20036;-49
2023/08/08 03:08:29;;;;;;;3.50;1.60;;;14.50;99.90;;;;;;5012697;28;20033;-48
2023/08/08 03:10:56;;;;;;;3.90;1.60;;;14.50;99.90;;;;;;5012655;28;20029;-51
2023/08/08 03:13:22;;;;;;;4.35;1.80;;;14.50;99.90;;;;;;5030129;28;20091;-52
2023/08/08 03:15:48;;;;;;;3.78;1.63;;;14.50;99.90;;;;;;5012573;28;20049;-50
2023/08/08 03:18:14;;;;;;;5.18;1.83;;;14.50;99.90;;;;;;5012814;28;20107;-51
2023/08/08 03:20:41;;;;;;;5.05;2.13;;;14.50;99.90;;;;;;5012629;28;20114;-48
2023/08/08 03:23:08;;;;;;;5.32;1.65;;;14.40;99.90;;;;;;5012457;28;20056;-50
2023/08/08 03:25:33;;;;;;;5.05;2.08;;;14.40;99.90;;;;;;5012297;28;20030;-51
2023/08/08 03:28:00;;;;;;;4.97;1.45;;;14.30;99.90;;;;;;5030382;28;20485;-51
2023/08/08 03:30:26;;;;;;;4.20;1.85;;;14.40;99.90;;;;;;5012642;28;20067;-52
2023/08/08 03:32:52;;;;;;;4.07;1.63;;;14.30;99.90;;;;;;5012631;28;20053;-51
2023/08/08 03:35:18;;;;;;;3.78;1.60;;;14.20;99.90;;;;;;5030175;28;20033;-49
2023/08/08 03:37:44;;;;;;;2.63;1.70;;;14.20;99.90;;;;;;5030530;28;20026;-49
2023/08/08 03:40:13;;;;;;;5.05;2.13;;;14.10;99.90;;;;;;5014265;28;20026;-54
2023/08/08 03:42:39;;;;;;;3.55;1.90;;;14.10;99.90;;;;;;5034051;28;20068;-49
2023/08/08 03:45:05;;;;;;;6.20;1.90;;;14.10;99.90;;;;;;5016405;28;20256;-50
2023/08/08 03:47:31;;;;;;;5.88;2.08;;;14.00;99.90;;;;;;5016498;28;20029;-49
2023/08/08 03:49:57;;;;;;;4.63;2.20;;;14.00;99.90;;;;;;5034075;28;20021;-50
2023/08/08 03:52:24;;;;;;;7.90;2.90;;;14.00;99.90;;;;;;5015997;28;20231;-49
2023/08/08 03:54:51;;;;;;;6.45;2.30;;;13.90;99.90;;;;;;5016289;28;20258;-49
2023/08/08 03:57:17;;;;;;;4.68;2.17;;;13.90;99.90;;;;;;5016100;28;20021;-50
2023/08/08 03:59:42;;;;;;;5.10;2.45;;;13.90;99.90;;;;;;4999947;28;20508;-51
2023/08/08 04:02:08;;;;;;;5.03;2.50;;;13.90;99.90;;;;;;5033804;28;20084;-49
2023/08/08 04:04:34;;;;;;;6.07;2.33;;;13.90;99.90;;;;;;5034836;28;20026;-50
2023/08/08 04:06:59;;;;;;;4.70;1.98;;;13.90;99.90;;;;;;5034357;28;20040;-51
2023/08/08 04:09:25;;;;;;;3.90;1.98;;;13.90;99.90;;;;;;5017465;28;20033;-49
2023/08/08 04:11:51;;;;;;;5.55;2.10;;;13.90;99.90;;;;;;5034959;28;20056;-48
2023/08/08 04:14:16;;;;;;;5.93;1.80;;;13.90;99.90;;;;;;5034359;28;20040;-52
2023/08/08 04:16:42;;;;;;;6.97;1.88;;;13.90;99.90;;;;;;5017172;28;20034;-50
2023/08/08 04:19:08;;;;;;;5.65;1.92;;;13.90;99.90;;;;;;5034409;28;20112;-49
2023/08/08 04:21:33;;;;;;;5.95;1.88;;;13.90;99.90;;;;;;5033195;28;20037;-52
2023/08/08 04:24:00;;;;;;;6.10;2.20;;;13.90;99.90;;;;;;5032993;28;20087;-51
2023/08/08 04:26:26;;;;;;;6.70;2.22;;;14.00;99.90;;;;;;5015236;28;20041;-51
2023/08/08 04:28:52;;;;;;;4.80;2.05;;;13.90;99.90;;;;;;5033152;28;20079;-53
2023/08/08 04:31:17;;;;;;;6.93;1.98;;;13.90;99.90;;;;;;5032917;28;20029;-50
2023/08/08 04:33:43;;;;;;;4.38;2.22;;;13.90;99.90;;;;;;5032666;28;20034;-53
2023/08/08 04:36:09;;;;;;;5.00;2.30;;;13.90;99.90;;;;;;5032580;28;20143;-49
2023/08/08 04:38:34;;;;;;;7.00;2.28;;;13.80;99.90;;;;;;5032743;28;20033;-49
2023/08/08 04:41:00;;;;;;;3.95;2.00;;;13.90;99.90;;;;;;5032790;28;20036;-54
2023/08/08 04:43:27;;;;;;;6.68;2.58;;;13.90;99.90;;;;;;5032485;28;20030;-52
2023/08/08 04:45:53;;;;;;;5.47;2.47;;;13.90;99.90;;;;;;5032535;28;20198;-52
2023/08/08 04:48:19;;;;;;;5.50;2.05;;;14.00;99.90;;;;;;5032577;28;20061;-49
2023/08/08 04:50:46;;;;;;;6.38;3.20;;;14.00;99.90;;;;;;5032133;28;20037;-53
2023/08/08 04:53:12;;;;;;;4.78;2.25;;;14.00;99.90;;;;;;5032164;28;20112;-54
2023/08/08 04:55:38;;;;;;;6.57;2.30;;;13.90;99.90;;;;;;5032289;28;20120;-53
2023/08/08 04:58:03;;;;;;;6.93;2.83;;;13.90;99.90;;;;;;5032494;28;20108;-50
2023/08/08 05:00:29;;;;;;;8.32;3.10;;;13.90;99.90;;;;;;5032439;28;20033;-50
2023/08/08 05:02:55;;;;;;;6.32;2.47;;;13.90;99.90;;;;;;5032217;28;20116;-52
2023/08/08 05:05:20;;;;;;;8.02;2.50;;;14.00;99.90;;;;;;5032105;28;20064;-52
2023/08/08 05:07:46;;;;;;;8.20;2.28;;;14.00;99.90;;;;;;5032032;28;20037;-51
2023/08/08 05:10:11;;;;;;;5.50;2.92;;;14.00;99.90;;;;;;5032247;28;20084;-52
2023/08/08 05:12:37;;;;;;;11.32;3.40;;;14.00;99.90;;;;;;5031972;28;20029;-53
2023/08/08 05:15:03;;;;;;;9.52;2.70;;;14.00;99.90;;;;;;5031964;28;20120;-51
2023/08/08 05:17:31;;;;;;;6.15;2.70;;;14.00;99.90;;;;;;5032144;28;20029;-51
2023/08/08 05:19:57;;;;;;;9.90;2.88;;;14.00;99.90;;;;;;5031999;28;20087;-51
2023/08/08 05:22:23;;;;;;;7.32;2.67;;;14.00;99.90;;;;;;5031651;28;20508;-54
2023/08/08 05:24:48;;;;;;;7.45;3.20;;;14.10;99.90;;;;;;5031936;28;20030;-52
2023/08/08 05:27:14;;;;;;;8.00;3.38;;;14.00;99.90;;;;;;5031667;28;20033;-54
2023/08/08 05:29:40;;;;;;;8.32;3.08;;;14.10;99.90;;;;;;5032216;28;20025;-53
2023/08/08 05:32:07;;;;;;;7.38;3.25;;;14.00;99.90;;;;;;5031600;28;20073;-50
2023/08/08 05:34:34;;;;;;;7.07;3.20;;;14.10;99.90;;;;;;5031554;28;20029;-53
2023/08/08 05:36:59;;;;;;;10.50;3.50;;;14.10;99.90;;;;;;5013647;28;20394;-52
2023/08/08 05:39:25;;;;;;;9.00;3.53;;;14.10;99.90;;;;;;5031808;28;20033;-50
2023/08/08 05:41:51;;;;;;;7.97;3.15;;;14.10;99.90;;;;;;5031555;28;20026;-48
2023/08/08 05:44:16;;;;;;;11.82;5.25;;;14.10;99.90;;;;;;5031484;28;20486;-49
2023/08/08 05:46:42;;;;;;;20.08;6.88;;;14.20;99.90;;;;;;5031348;28;20030;-50
2023/08/08 05:49:07;;;;;;;16.40;8.48;;;14.30;99.90;;;;;;5031430;28;20105;-53
2023/08/08 05:51:33;;;;;;;15.20;6.93;;;14.30;99.90;;;;;;5031174;28;20405;-49
2023/08/08 05:53:59;;;;;;;10.90;5.65;;;14.30;99.90;;;;;;5031257;28;20032;-53
2023/08/08 05:56:24;;;;;;;11.52;5.53;;;14.30;99.90;;;;;;5031150;28;20111;-50
2023/08/08 05:58:50;;;;;;;11.50;5.30;;;14.40;99.90;;;;;;5031253;28;20087;-53
2023/08/08 06:01:15;;;;;;;17.50;6.97;;;14.40;99.90;;;;;;5031097;28;20068;-50
2023/08/08 06:03:42;;;;;;;14.23;6.07;;;14.50;99.90;;;;;;5030292;28;20017;-52
2023/08/08 06:06:07;;;;;;;10.85;4.88;;;14.50;99.90;;;;;;5030843;28;20033;-51
2023/08/08 06:08:33;;;;;;;12.05;4.78;;;14.40;99.90;;;;;;5031200;28;20095;-49
2023/08/08 06:10:59;;;;;;;14.20;5.15;;;14.50;99.90;;;;;;5013329;28;20029;-53
2023/08/08 06:13:24;;;;;;;13.40;5.10;;;14.50;99.90;;;;;;5030754;28;20541;-50
2023/08/08 06:15:50;;;;;;;15.60;6.03;;;14.50;99.90;;;;;;5030887;28;20080;-54
2023/08/08 06:18:17;;;;;;;13.20;6.15;;;14.50;99.90;;;;;;4996901;28;20033;-54
2023/08/08 06:20:43;;;;;;;13.43;5.05;;;14.50;99.90;;;;;;5030959;28;20086;-50
2023/08/08 06:23:08;;;;;;;14.77;5.28;;;14.60;99.90;;;;;;5013057;28;20505;-52
2023/08/08 06:25:34;;;;;;;14.43;5.25;;;14.60;99.90;;;;;;5030709;28;20030;-53
2023/08/08 06:27:59;;;;;;;15.65;5.93;;;14.60;99.90;;;;;;5030874;28;20033;-50
2023/08/08 06:30:25;;;;;;;14.40;5.55;;;14.60;99.90;;;;;;5030947;28;20493;-54
2023/08/08 06:32:51;;;;;;;13.27;6.20;;;14.70;99.90;;;;;;5030528;28;20033;-52
2023/08/08 06:35:16;;;;;;;14.73;6.28;;;14.70;99.90;;;;;;5030666;28;20151;-51
2023/08/08 06:37:43;;;;;;;12.07;5.20;;;14.70;99.90;;;;;;5031041;28;20026;-52
2023/08/08 06:40:10;;;;;;;10.85;5.45;;;14.80;99.90;;;;;;5031078;28;20486;-53
2023/08/08 06:42:36;;;;;;;13.07;5.80;;;14.80;99.90;;;;;;5030814;28;20033;-49
2023/08/08 06:45:02;;;;;;;12.68;5.85;;;15.00;99.90;;;;;;5030662;28;20030;-54
2023/08/08 06:47:28;;;;;;;11.25;5.70;;;15.00;99.90;;;;;;5030705;28;20021;-53
2023/08/08 06:49:54;;;;;;;13.82;5.57;;;15.00;99.90;;;;;;5031116;28;20454;-51
2023/08/08 06:52:21;;;;;;;12.80;6.15;;;14.90;99.90;;;;;;5030344;28;20037;-54
2023/08/08 06:54:47;;;;;;;9.23;5.70;;;15.00;99.90;;;;;;5030612;28;20108;-50
2023/08/08 06:57:12;;;;;;;10.73;5.30;;;15.10;99.90;;;;;;5030506;28;20137;-54
2023/08/08 06:59:38;;;;;;;14.93;5.88;;;15.10;99.90;;;;;;5030662;28;20084;-53
2023/08/08 07:02:04;;;;;;;10.27;5.53;;;15.20;99.90;;;;;;5030172;28;20219;-52
2023/08/08 07:04:29;;;;;;;10.43;4.88;;;15.20;99.90;;;;;;5030283;28;20103;-54
2023/08/08 07:06:55;;;;;;;11.77;5.55;;;15.30;99.90;;;;;;5030108;28;20029;-52
2023/08/08 07:09:21;;;;;;;13.80;5.15;;;15.30;99.90;;;;;;5030559;28;20025;-53
2023/08/08 07:11:47;;;;;;;10.27;5.13;;;15.50;99.90;;;;;;5012558;28;20048;-53
2023/08/08 07:14:13;;;;;;;11.57;4.85;;;15.90;99.90;;;;;;5032000;28;20121;-50
2023/08/08 07:16:38;;;;;;;8.23;5.07;;;16.00;99.90;;;;;;5033974;28;20138;-51
2023/08/08 07:19:05;;;;;;;11.15;4.90;;;15.90;99.90;;;;;;5034231;28;20485;-51
2023/08/08 07:21:31;;;;;;;8.98;4.43;;;16.00;99.90;;;;;;5033952;28;20079;-53
2023/08/08 07:23:57;;;;;;;9.98;4.05;;;16.00;99.90;;;;;;5034178;28;20029;-52
2023/08/08 07:26:23;;;;;;;8.77;3.95;;;16.00;99.90;;;;;;5033886;28;20038;-52
2023/08/08 07:28:48;;;;;;;8.65;4.40;;;16.00;99.90;;;;;;5016460;28;20029;-53
2023/08/08 07:31:14;;;;;;;13.15;4.30;;;16.10;99.90;;;;;;5033928;28;20482;-53
2023/08/08 07:33:40;;;;;;;11.48;4.10;;;16.20;99.90;;;;;;5033665;28;20332;-50
2023/08/08 07:36:05;;;;;;;6.05;3.38;;;16.20;99.90;;;;;;5033656;28;20029;-49
2023/08/08 07:38:33;;;;;;;11.07;4.05;;;16.30;99.90;;;;;;5033909;28;20476;-52
2023/08/08 07:40:58;;;;;;;10.43;3.70;;;16.40;99.90;;;;;;5033800;28;20032;-53
2023/08/08 07:43:24;;;;;;;8.65;3.20;;;16.50;99.90;;;;;;5033533;28;20029;-49
2023/08/08 07:45:49;;;;;;;8.00;3.30;;;16.60;99.90;;;;;;5033497;28;20033;-51
2023/08/08 07:48:15;;;;;;;7.45;3.13;;;16.70;99.90;;;;;;5033654;28;20061;-52
2023/08/08 07:50:41;;;;;;;7.07;3.08;;;16.80;99.90;;;;;;5033722;28;20029;-54
2023/08/08 07:53:07;;;;;;;8.63;3.20;;;16.80;99.90;;;;;;5033436;28;20498;-54
2023/08/08 07:55:32;;;;;;;6.20;2.70;;;16.80;99.90;;;;;;5033406;28;20141;-50
2023/08/08 07:57:58;;;;;;;7.30;2.47;;;17.00;99.90;;;;;;5033551;28;20025;-54
2023/08/08 08:00:24;;;;;;;4.70;2.30;;;17.10;99.90;;;;;;5033385;28;20083;-49
2023/08/08 08:02:49;;;;;;;6.63;2.45;;;17.10;99.90;;;;;;5033087;28;20381;-52
2023/08/08 08:05:15;;;;;;;5.57;2.25;;;17.10;99.90;;;;;;5015291;28;20037;-53
2023/08/08 08:07:41;;;;;;;10.18;2.80;;;17.20;99.90;;;;;;5033768;28;20140;-53
2023/08/08 08:10:10;;;;;;;9.05;2.47;;;17.20;99.90;;;;;;5033366;28;20037;-52
2023/08/08 08:12:36;;;;;;;5.97;2.20;;;17.40;99.90;;;;;;5033051;28;20030;-52
2023/08/08 08:15:02;;;;;;;6.72;2.10;;;17.60;99.90;;;;;;5032854;28;20371;-53
2023/08/08 08:17:28;;;;;;;4.13;1.70;;;17.60;99.90;;;;;;5033135;28;20034;-53
2023/08/08 08:19:54;;;;;;;6.40;1.90;;;17.60;99.90;;;;;;5033215;28;20033;-54
2023/08/08 08:22:20;;;;;;;7.43;2.17;;;17.60;99.90;;;;;;5032748;28;20163;-51
2023/08/08 08:24:46;;;;;;;4.30;1.83;;;17.70;99.90;;;;;;5033070;28;20112;-51
2023/08/08 08:27:12;;;;;;;4.40;1.95;;;17.70;99.90;;;;;;5014689;28;20030;-48
2023/08/08 08:29:37;;;;;;;8.32;2.30;;;17.70;99.90;;;;;;5033346;28;20034;-53
2023/08/08 08:32:03;;;;;;;6.00;2.00;;;17.60;99.90;;;;;;5032558;28;20037;-53
2023/08/08 08:34:29;;;;;;;8.73;2.33;;;17.60;99.90;;;;;;5032909;28;20111;-53
2023/08/08 08:36:55;;;;;;;3.50;1.77;;;17.70;99.90;;;;;;5032631;28;20339;-51
2023/08/08 08:39:20;;;;;;;7.78;2.92;;;17.50;99.90;;;;;;5033024;28;20371;-50
2023/08/08 08:41:52;;;;;;;4.70;2.17;;;17.50;99.90;;;;;;5032562;28;20030;-54
2023/08/08 08:44:20;;;;;;;33.97;16.70;;;17.40;99.90;;;;;;5032553;28;20504;-49
2023/08/08 08:46:48;;;;;;;15.15;6.90;;;17.50;99.90;;;;;;5032486;28;20060;-54
2023/08/08 08:49:14;;;;;;;22.98;10.13;;;17.50;99.90;;;;;;5032559;28;20037;-54
2023/08/08 08:51:40;;;;;;;18.83;7.75;;;17.70;99.90;;;;;;5032274;28;20119;-50
2023/08/08 08:54:06;;;;;;;12.15;6.15;;;17.60;99.90;;;;;;5032460;28;20121;-54
2023/08/08 08:56:32;;;;;;;8.65;3.45;;;17.80;99.90;;;;;;5032185;28;20037;-49
2023/08/08 08:58:59;;;;;;;6.78;2.67;;;17.90;99.90;;;;;;5032269;28;20486;-52
2023/08/08 09:01:27;;;;;;;8.00;2.30;;;17.90;99.90;;;;;;5032364;28;20041;-53
2023/08/08 09:03:53;;;;;;;6.63;1.70;;;17.90;99.90;;;;;;5032251;28;20043;-53
2023/08/08 09:06:20;;;;;;;4.28;2.00;;;17.90;99.90;;;;;;5032086;28;20425;-52
2023/08/08 09:08:47;;;;;;;4.63;1.70;;;18.00;99.90;;;;;;5032270;28;20033;-54
2023/08/08 09:11:13;;;;;;;4.68;2.13;;;18.10;99.90;;;;;;5032330;28;20529;-50
2023/08/08 09:13:41;;;;;;;4.95;1.60;;;18.20;99.90;;;;;;5031790;28;20124;-50
2023/08/08 09:16:08;;;;;;;4.03;1.48;;;18.20;99.90;;;;;;5031778;28;20026;-50
2023/08/08 09:18:34;;;;;;;4.97;1.80;;;18.30;99.90;;;;;;5032031;28;20060;-49
2023/08/08 09:21:00;;;;;;;4.90;1.63;;;18.20;99.90;;;;;;5031967;28;20068;-48
2023/08/08 09:23:26;;;;;;;4.15;1.38;;;18.20;99.90;;;;;;5014045;28;20061;-48
2023/08/08 09:25:51;;;;;;;4.65;2.38;;;18.10;99.90;;;;;;5031791;28;20303;-49
2023/08/08 09:28:17;;;;;;;5.30;2.22;;;18.10;99.90;;;;;;5031862;28;20060;-49
2023/08/08 09:30:44;;;;;;;5.18;1.70;;;18.00;99.90;;;;;;5031828;28;20090;-48
2023/08/08 09:33:11;;;;;;;4.07;1.80;;;17.90;99.90;;;;;;5031427;28;20094;-48
2023/08/08 09:35:38;;;;;;;6.20;2.40;;;17.80;99.90;;;;;;5031313;28;20090;-50
2023/08/08 09:38:04;;;;;;;4.78;1.63;;;17.80;99.90;;;;;;5031768;28;20045;-50
2023/08/08 09:40:30;;;;;;;5.15;1.90;;;17.80;99.90;;;;;;5031438;28;20498;-48
2023/08/08 09:42:56;;;;;;;5.50;1.40;;;17.70;99.90;;;;;;5031276;28;20037;-48
2023/08/08 09:45:23;;;;;;;7.90;1.63;;;17.60;99.90;;;;;;5031350;28;20034;-51
2023/08/08 09:47:52;;;;;;;3.60;1.33;;;17.70;99.90;;;;;;5031498;28;20037;-48
2023/08/08 09:50:19;;;;;;;5.35;1.85;;;17.80;99.90;;;;;;5031469;28;20037;-53
2023/08/08 09:52:46;;;;;;;6.63;1.80;;;17.90;99.90;;;;;;5031281;28;20037;-51
2023/08/08 09:55:13;;;;;;;7.00;1.85;;;18.00;99.90;;;;;;5031261;28;20079;-49
2023/08/08 09:57:40;;;;;;;5.38;2.15;;;18.00;99.90;;;;;;5031536;28;20100;-52
2023/08/08 10:00:15;;;;;;;4.05;1.55;;;18.10;99.90;;;;;;5031664;28;20044;-49
2023/08/08 10:02:43;;;;;;;5.13;2.28;;;18.00;99.90;;;;;;5013624;28;20492;-49
2023/08/08 10:05:10;;;;;;;2.60;1.40;;;17.90;99.90;;;;;;5031345;28;20033;-48
2023/08/08 10:07:36;;;;;;;3.55;1.50;;;17.90;99.90;;;;;;5031133;28;20045;-53
2023/08/08 10:10:03;;;;;;;6.15;1.65;;;18.00;99.90;;;;;;5031404;28;20044;-49
2023/08/08 10:12:28;;;;;;;4.03;1.45;;;18.20;99.90;;;;;;5030884;28;20033;-50
2023/08/08 10:14:55;;;;;;;4.40;1.60;;;18.30;99.90;;;;;;5031127;28;20037;-51
2023/08/08 10:17:20;;;;;;;4.25;1.70;;;18.40;99.90;;;;;;5031027;28;20470;-49
2023/08/08 10:19:54;;;;;;;3.55;1.45;;;18.50;99.90;;;;;;5031274;28;20036;-50
2023/08/08 10:22:24;;;;;;;6.72;1.80;;;18.70;99.90;;;;;;5031135;28;20033;-49
2023/08/08 10:24:54;;;;;;;4.68;1.80;;;18.80;99.90;;;;;;5031340;28;20029;-48
2023/08/08 10:27:33;;;;;;;6.45;2.25;;;18.90;99.90;;;;;;5031160;28;20090;-48
2023/08/08 10:30:10;;;;;;;5.30;1.52;;;18.80;99.90;;;;;;5031611;28;20088;-48
2023/08/08 10:32:41;;;;;;;6.13;2.03;;;18.80;99.90;;;;;;5031191;28;20025;-53
2023/08/08 10:35:08;;;;;;;2.60;1.13;;;18.90;99.90;;;;;;5031679;28;20033;-53
2023/08/08 10:37:36;;;;;;;3.40;1.33;;;18.90;99.90;;;;;;5032211;28;20475;-53
2023/08/08 10:40:06;;;;;;;3.85;1.50;;;19.00;99.90;;;;;;5032893;28;20443;-52
2023/08/08 10:42:41;;;;;;;4.85;1.95;;;19.00;99.90;;;;;;5014867;28;20516;-53
2023/08/08 10:45:13;;;;;;;4.55;1.52;;;18.90;99.90;;;;;;5031450;28;20393;-52
2023/08/08 10:47:39;;;;;;;3.05;1.40;;;18.80;99.90;;;;;;5030737;28;20500;-50
2023/08/08 10:50:13;;;;;;;5.80;1.50;;;19.00;99.90;;;;;;5030158;28;20118;-49
2023/08/08 10:52:54;;;;;;;4.55;1.40;;;19.00;99.90;;;;;;5030247;28;20080;-51
2023/08/08 10:55:31;;;;;;;4.00;1.50;;;18.90;99.90;;;;;;5030294;28;20030;-49
2023/08/08 10:58:06;;;;;;;6.72;2.92;;;18.80;99.90;;;;;;5030599;28;20445;-49
2023/08/08 11:00:37;;;;;;;8.38;3.88;;;18.70;99.90;;;;;;5030460;28;20075;-53
2023/08/08 11:03:04;;;;;;;10.80;4.60;;;18.60;99.90;;;;;;5030291;28;20087;-52
2023/08/08 11:05:35;;;;;;;11.25;5.53;;;18.50;99.90;;;;;;5030233;28;20037;-51
2023/08/08 11:08:02;;;;;;;5.50;2.15;;;18.30;99.90;;;;;;5030245;28;20563;-50
2023/08/08 11:10:31;;;;;;;4.00;1.60;;;18.20;99.90;;;;;;5030342;28;20126;-50
2023/08/08 11:13:01;;;;;;;6.00;1.60;;;18.00;99.90;;;;;;5030066;28;20030;-51
2023/08/08 11:15:27;;;;;;;4.05;1.85;;;18.00;99.90;;;;;;5030095;28;20033;-53
2023/08/08 11:17:55;;;;;;;4.88;1.30;;;18.10;99.90;;;;;;5030404;28;20092;-54
2023/08/08 11:20:24;;;;;;;3.30;1.70;;;18.40;99.90;;;;;;5030350;28;20065;-51
2023/08/08 11:22:54;;;;;;;6.60;1.65;;;18.70;99.90;;;;;;5030082;28;20083;-52
2023/08/08 11:25:21;;;;;;;5.63;1.40;;;18.80;99.90;;;;;;5030349;28;20160;-52
2023/08/08 11:27:52;;;;;;;3.95;1.48;;;19.00;99.90;;;;;;5030193;28;20025;-51
2023/08/08 11:30:18;;;;;;;4.10;1.52;;;19.10;99.90;;;;;;5030223;28;20490;-52
2023/08/08 11:32:46;;;;;;;7.18;2.40;;;19.30;99.90;;;;;;5029850;28;20167;-52
2023/08/08 11:35:12;;;;;;;4.70;1.60;;;19.40;99.90;;;;;;5029935;28;20079;-49
2023/08/08 11:37:38;;;;;;;2.65;1.60;;;19.30;99.90;;;;;;5030171;28;20465;-53
2023/08/08 11:40:05;;;;;;;3.60;1.85;;;19.30;99.90;;;;;;5030398;28;20025;-50
2023/08/08 11:42:31;;;;;;;4.30;1.67;;;19.30;99.90;;;;;;5029985;28;20026;-53
2023/08/08 11:44:58;;;;;;;2.85;1.50;;;19.20;99.90;;;;;;5030001;28;20080;-52
2023/08/08 11:47:31;;;;;;;4.03;1.92;;;19.20;99.90;;;;;;5029937;28;20035;-52
2023/08/08 11:49:57;;;;;;;4.60;1.42;;;19.10;99.90;;;;;;5030331;28;20032;-52
2023/08/08 11:52:23;;;;;;;7.00;1.75;;;19.20;99.90;;;;;;5029924;28;20120;-53
2023/08/08 11:54:52;;;;;;;4.38;1.42;;;19.10;99.90;;;;;;5029865;28;20041;-50
2023/08/08 11:57:18;;;;;;;2.70;1.25;;;19.10;99.90;;;;;;5030011;28;20041;-52
2023/08/08 11:59:44;;;;;;;8.55;1.83;;;19.20;99.90;;;;;;5030309;28;20030;-54
2023/08/08 12:02:10;;;;;;;5.30;1.88;;;19.20;99.90;;;;;;5032425;28;20026;-51
2023/08/08 12:04:36;;;;;;;3.92;1.52;;;19.20;99.90;;;;;;5033321;28;20026;-51
2023/08/08 12:07:03;;;;;;;5.50;1.52;;;19.20;99.90;;;;;;5033065;28;20052;-53
2023/08/08 12:09:32;;;;;;;9.23;2.50;;;19.10;99.90;;;;;;5033363;28;20108;-51
2023/08/08 12:12:00;;;;;;;4.95;1.42;;;19.10;99.90;;;;;;5033290;28;20028;-53
2023/08/08 12:14:25;;;;;;;4.15;1.70;;;19.00;99.90;;;;;;5033117;28;20137;-51
2023/08/08 12:16:51;;;;;;;6.28;1.88;;;19.00;99.90;;;;;;5032918;28;20120;-53
2023/08/08 12:19:21;;;;;;;3.25;1.30;;;19.20;99.90;;;;;;5033202;28;20033;-50
2023/08/08 12:21:46;;;;;;;3.88;1.40;;;19.50;99.90;;;;;;5032941;28;20033;-52
2023/08/08 12:24:12;;;;;;;2.33;1.15;;;19.60;99.90;;;;;;5015151;28;20033;-50
2023/08/08 12:26:38;;;;;;;3.72;1.27;;;19.70;99.90;;;;;;5015187;28;20107;-52
2023/08/08 12:29:03;;;;;;;3.88;1.40;;;19.80;99.90;;;;;;5033094;28;20490;-54
2023/08/08 12:31:29;;;;;;;3.50;1.15;;;19.90;99.90;;;;;;5032731;28;20068;-53
2023/08/08 12:33:55;;;;;;;2.13;1.00;;;19.90;99.90;;;;;;5032874;28;20118;-50
2023/08/08 12:36:20;;;;;;;3.08;1.20;;;19.80;99.90;;;;;;5032704;28;20474;-54
2023/08/08 12:38:46;;;;;;;3.92;1.33;;;19.80;99.90;;;;;;5032938;28;20025;-53
2023/08/08 12:41:12;;;;;;;4.65;1.55;;;19.80;99.90;;;;;;5032960;28;20116;-50
2023/08/08 12:43:38;;;;;;;4.55;1.70;;;20.00;99.90;;;;;;5032451;28;20363;-52